Skip to main content.
 TIME   TEMPERATURE   WINDSPEED   DIRECTION   HUMIDITY   BAROMETER   RAINFALL 
19:15 24.0°C (75.2°F) 11.1 kmh (6.9 mph) SE 57% 1015.9hPa (30.00 inHg) 0.0mm (0.00 in.)
18:15 26.0°C (78.8 °F) 9.3 kmh (5.8 mph) ENE 44% 1015.9hPa (30.00 inHg) 0.0mm (0.00 in.)
17:15 26.0°C (78.8 °F) 14.8 kmh (9.2 mph) N 44% 1015.9hPa (30.00 inHg) 0.0mm (0.00 in.)
16:15 26.0°C (78.8 °F) 16.7 kmh (10.4 mph) NNW 50% 1015.9hPa (30.00 inHg) 0.0mm (0.00 in.)
15:15 25.0°C (77.0 °F) 18.5 kmh (11.5 mph) N 57% 1016.9hPa (30.03 inHg) 0.0mm (0.00 in.)
14:15 25.0°C (77.0 °F) 16.7 kmh (10.4 mph) NNE 57% 1016.9hPa (30.03 inHg) 0.0mm (0.00 in.)
13:15 27.0°C (80.6 °F) 14.8 kmh (9.2 mph) NNE 44% 1016.9hPa (30.03 inHg) 0.0mm (0.00 in.)
12:15 26.0°C (78.8 °F) 20.4 kmh (12.7 mph) NNW 47% 1016.9hPa (30.03 inHg) 0.0mm (0.00 in.)
11:15 25.0°C (77.0 °F) 24.1 kmh (15.0 mph) N 50% 1016.9hPa (30.03 inHg) 0.0mm (0.00 in.)
10:15 25.0°C (77.0 °F) 20.4 kmh (12.7 mph) NNW 53% 1016.9hPa (30.03 inHg) 0.0mm (0.00 in.)
9:15 23.0°C (73.4 °F) 16.7 kmh (10.4 mph) NW 60% 1015.9hPa (30.00 inHg) 0.0mm (0.00 in.)
8:15 22.0°C (71.6 °F) 24.1 kmh (15.0 mph) NNW 60% 1015.9hPa (30.00 inHg) 0.0mm (0.00 in.)
7:14 20.0°C (68.0 °F) 16.7 kmh (10.4 mph) NNW 68% 1014.9hPa (29.97 inHg) 0.0mm (0.00 in.)
6:14 19.0°C (66.2 °F) 9.3 kmh (5.8 mph) NNW 72% 1013.9hPa (29.94 inHg) 0.0mm (0.00 in.)
5:14 19.0°C (66.2 °F) 18.5 kmh (11.5 mph) NNW 77% 1013.9hPa (29.94 inHg) 0.0mm (0.00 in.)
4:14 20.0°C (68.0 °F) 20.4 kmh (12.7 mph) NNW 72% 1013.9hPa (29.94 inHg) 0.0mm (0.00 in.)
3:14 20.0°C (68.0 °F) 18.5 kmh (11.5 mph) NNW 68% 1013.9hPa (29.94 inHg) 0.0mm (0.00 in.)
2:14 20.0°C (68.0 °F) 11.1 kmh (6.9 mph) NNW 68% 1013.9hPa (29.94 inHg) 0.0mm (0.00 in.)
1:14 20.0°C (68.0 °F) 13.0 kmh (8.1 mph) NW 68% 1014.9hPa (29.97 inHg) 0.0mm (0.00 in.)
0:14 21.0°C (69.8 °F) 7.4 kmh (4.6 mph) N 52% 1014.9hPa (29.97 inHg) 0.0mm (0.00 in.)
23:14 21.0°C (69.8 °F) 9.3 kmh (5.8 mph) NW 49% 1014.9hPa (29.97 inHg) 0.0mm (0.00 in.)
22:14 22.0°C (71.6 °F) 11.1 kmh (6.9 mph) WNW 43% 1013.9hPa (29.94 inHg) 0.0mm (0.00 in.)
21:14 23.0°C (73.4 °F) 13.0 kmh (8.1 mph) NW 43% 1013.9hPa (29.94 inHg) 0.0mm (0.00 in.)
20:14 28.0°C (82.4 °F) 13.0 kmh (8.1 mph) NNW 30% 1012.9hPa (29.91 inHg) 0.0mm (0.00 in.)